メインページ
METAR-TAF:

METAR-TAF

空港 :

ダマスカス, シリア

ダマスカス国際空港

緯度: 33-25N, 経度: 036-31E, 海抜: 608m

現時点の気象観測

当レポートは28分前の09:00(UTC)に作成
南/南西の風 16kt
気温 16°C
湿度 48%
気圧 1011 hPa
視程: 8000m
高度3000ftの雲はほとんどない
高度10000ftの雲は散在している

METAR: OSDI 250900Z 21016KT 8000 FEW030 SCT100 16/05 Q1011

時間: 11:28 (09:28 UTC)

予報

予報は25日の 00時(UTC)から 26日の 06時(UTC)まで有効
変向風 3kt
視程: 3000m
25日の 02時(UTC)から 25日の 06時(UTC)まで一時的に
変向風 3kt
視程: 0200m
25日の 07時(UTC)から 25日の 09時(UTC)まで徐々に
西/南西の風 10kt
視程10km以上
高度3000ftの雲はほとんどない
高度10000ftの雲は散在している

TAF: OSDI 2500/2606 VRB03KT 3000 BR TEMPO 2502/2506 VRB03KT 0200 FG BECMG 2507/2509 24010KT 9999 FEW030 SCT100

4,000以上の空港の気象観測と天気予報(METAR報とTAF報)

利用可能な観測所は地図上に黄色い丸と赤い丸で示す。

丸の上にカーソルを重ねると観測所名を参照できる。

次にクリックすると気象観測と天気予報を参照できる。

マップの切り替え:黒色「×」印の緑ボタンをクリックして拡大、「-」印の緑ボタンをクリックして縮小、緑色の三角印をクリックして隣りの地図に切り替え


METAR-TAF: